Time;durP1;ratioP1;P1;durP2;ratioP2;P2;SDS_P1;SDS_P2;PMS_P1;PMS_P2;Temp;Humidity;BMP_temperature;BMP_pressure;BME280_temperature;BME280_humidity;BME280_pressure;Samples;Min_cycle;Max_cycle;Signal;HPM_P1;HPM_P2
2022/06/24 00:00:48;;;;;;;4.30;1.30;;;18.30;99.90;;;;;;5043455;28;20452;-75
2022/06/24 00:03:18;;;;;;;4.30;1.35;;;18.20;99.90;;;;;;5033600;28;20041;-75
2022/06/24 00:05:46;;;;;;;4.20;1.10;;;18.10;99.90;;;;;;5045341;28;20117;-76
2022/06/24 00:08:11;;;;;;;3.10;1.50;;;18.10;99.90;;;;;;5053220;28;20511;-76
2022/06/24 00:10:37;;;;;;;2.47;1.33;;;18.10;99.90;;;;;;5052455;28;20055;-77
2022/06/24 00:13:05;;;;;;;3.80;1.52;;;18.00;99.90;;;;;;5050395;28;20056;-76
2022/06/24 00:15:35;;;;;;;3.47;1.15;;;18.00;99.90;;;;;;5053500;28;20083;-76
2022/06/24 00:18:12;;;;;;;4.45;1.27;;;18.00;99.90;;;;;;5040742;28;20025;-77
2022/06/24 00:20:47;;;;;;;3.03;1.10;;;18.00;99.90;;;;;;5024642;28;20021;-76
2022/06/24 00:23:15;;;;;;;2.10;1.00;;;18.00;99.90;;;;;;5053192;28;20052;-75
2022/06/24 00:25:42;;;;;;;3.40;1.02;;;18.00;99.90;;;;;;5055108;28;20490;-74
2022/06/24 00:28:10;;;;;;;4.93;1.60;;;17.90;99.90;;;;;;5055143;28;20071;-75
2022/06/24 00:30:37;;;;;;;5.75;1.33;;;17.90;99.90;;;;;;5037249;28;20029;-75
2022/06/24 00:33:19;;;;;;;4.53;1.23;;;17.80;99.90;;;;;;5055235;28;20513;-75
2022/06/24 00:35:56;;;;;;;3.58;1.33;;;17.80;99.90;;;;;;5054952;28;20025;-75
2022/06/24 00:38:26;;;;;;;2.95;1.20;;;17.80;99.90;;;;;;5054792;28;20021;-75
2022/06/24 00:40:55;;;;;;;5.40;1.20;;;17.70;99.90;;;;;;5062741;28;20024;-75
2022/06/24 00:43:34;;;;;;;4.57;1.20;;;17.70;99.90;;;;;;5074708;28;20081;-75
2022/06/24 00:46:10;;;;;;;2.58;1.45;;;17.60;99.90;;;;;;5056711;28;20393;-75
2022/06/24 00:48:38;;;;;;;2.00;1.17;;;17.60;99.90;;;;;;5066370;28;20021;-75
2022/06/24 00:51:07;;;;;;;4.18;1.20;;;17.60;99.90;;;;;;5052721;28;20021;-75
2022/06/24 00:53:43;;;;;;;1.67;1.00;;;17.60;99.90;;;;;;5035144;28;20013;-76
2022/06/24 00:56:11;;;;;;;3.63;1.20;;;17.50;99.90;;;;;;5056314;28;20035;-76
2022/06/24 00:58:37;;;;;;;2.75;1.20;;;17.50;99.90;;;;;;5074651;28;20024;-76
2022/06/24 01:01:03;;;;;;;3.55;1.10;;;17.50;99.90;;;;;;5040767;28;20024;-76
2022/06/24 01:03:40;;;;;;;2.85;1.20;;;17.50;99.90;;;;;;5054667;28;20347;-76
2022/06/24 01:06:07;;;;;;;2.17;1.15;;;17.50;99.90;;;;;;5068500;28;20016;-76
2022/06/24 01:08:33;;;;;;;2.65;1.10;;;17.50;99.90;;;;;;5054542;28;20021;-76
2022/06/24 01:10:59;;;;;;;3.90;1.10;;;17.40;99.90;;;;;;5054048;28;20044;-76
2022/06/24 01:13:24;;;;;;;3.40;1.40;;;17.40;99.90;;;;;;5054412;28;20025;-76
2022/06/24 01:15:50;;;;;;;2.42;1.08;;;17.50;99.90;;;;;;5036432;28;20021;-76
2022/06/24 01:18:16;;;;;;;2.95;1.13;;;17.40;99.90;;;;;;5052603;28;20017;-76
2022/06/24 01:20:42;;;;;;;3.03;1.30;;;17.40;99.90;;;;;;5054290;28;20104;-76
2022/06/24 01:23:07;;;;;;;3.78;1.10;;;17.30;99.90;;;;;;5039937;28;20108;-76
2022/06/24 01:25:33;;;;;;;2.92;1.20;;;17.30;99.90;;;;;;5054452;28;20033;-76
2022/06/24 01:27:59;;;;;;;4.20;1.20;;;17.30;99.90;;;;;;5054262;28;20053;-76
2022/06/24 01:30:25;;;;;;;4.18;1.20;;;17.40;99.90;;;;;;5048291;28;20025;-76
2022/06/24 01:32:51;;;;;;;5.07;1.40;;;17.30;99.90;;;;;;5028312;28;20478;-76
2022/06/24 01:35:17;;;;;;;2.95;1.50;;;17.40;99.90;;;;;;5057849;28;20020;-76
2022/06/24 01:37:43;;;;;;;5.57;1.40;;;17.40;99.90;;;;;;5064219;28;20029;-76
2022/06/24 01:40:09;;;;;;;3.15;1.20;;;17.40;99.90;;;;;;5037619;28;20351;-76
2022/06/24 01:42:34;;;;;;;4.97;1.40;;;17.40;99.90;;;;;;5074087;28;20031;-76
2022/06/24 01:45:00;;;;;;;4.60;1.20;;;17.40;99.90;;;;;;5059866;28;20037;-76
2022/06/24 01:47:26;;;;;;;4.45;1.30;;;17.30;99.90;;;;;;5058937;28;20027;-76
2022/06/24 01:49:52;;;;;;;4.95;1.33;;;17.30;99.90;;;;;;5051262;28;20029;-76
2022/06/24 01:52:17;;;;;;;3.28;1.27;;;17.30;99.90;;;;;;5051505;28;20025;-77
2022/06/24 01:54:43;;;;;;;2.92;1.25;;;17.30;99.90;;;;;;5051498;28;20045;-76
2022/06/24 01:57:08;;;;;;;3.83;1.20;;;17.30;99.90;;;;;;5051103;28;20343;-77
2022/06/24 01:59:34;;;;;;;3.00;1.27;;;17.30;99.90;;;;;;5051501;28;20411;-77
2022/06/24 02:02:03;;;;;;;5.22;1.30;;;17.30;99.90;;;;;;5050700;28;20031;-76
2022/06/24 02:04:30;;;;;;;5.30;1.40;;;17.30;99.90;;;;;;5050725;28;20025;-76
2022/06/24 02:06:55;;;;;;;4.05;1.67;;;17.30;99.90;;;;;;5051221;28;20088;-76
2022/06/24 02:09:21;;;;;;;3.92;1.40;;;17.30;99.90;;;;;;5051409;28;20037;-76
2022/06/24 02:14:31;;;;;;;3.08;1.33;;;17.20;99.90;;;;;;5051213;28;20040;-77
2022/06/24 02:16:57;;;;;;;4.50;1.30;;;17.20;99.90;;;;;;5048129;28;20037;-77
2022/06/24 02:19:23;;;;;;;6.70;1.70;;;17.20;99.90;;;;;;5050852;28;20032;-77
2022/06/24 02:21:48;;;;;;;3.75;1.38;;;17.20;99.90;;;;;;5041413;28;20815;-77
2022/06/24 02:24:15;;;;;;;3.85;1.40;;;17.20;99.90;;;;;;5049869;28;20025;-77
2022/06/24 02:26:43;;;;;;;3.00;1.65;;;17.20;99.90;;;;;;5051086;28;20465;-77
2022/06/24 02:29:10;;;;;;;4.03;1.48;;;17.20;99.90;;;;;;5048573;28;20078;-77
2022/06/24 02:31:36;;;;;;;3.05;1.20;;;17.20;99.90;;;;;;5040203;28;20036;-78
2022/06/24 02:34:02;;;;;;;4.18;1.30;;;17.20;99.90;;;;;;5052708;28;20466;-77
2022/06/24 02:36:28;;;;;;;6.20;1.35;;;17.20;99.90;;;;;;5054918;28;20021;-76
2022/06/24 02:38:54;;;;;;;8.45;1.90;;;17.20;99.90;;;;;;5055283;28;20499;-76
2022/06/24 02:41:19;;;;;;;2.33;1.30;;;17.30;99.90;;;;;;5055472;28;20031;-76
2022/06/24 02:43:45;;;;;;;4.32;1.52;;;17.30;99.90;;;;;;5055337;28;20032;-76
2022/06/24 02:46:12;;;;;;;6.45;1.30;;;17.30;99.90;;;;;;5054960;28;20043;-76
2022/06/24 02:48:40;;;;;;;8.15;1.80;;;17.20;99.90;;;;;;5054971;28;20032;-76
2022/06/24 02:51:10;;;;;;;8.32;1.55;;;17.20;99.90;;;;;;5036623;28;20120;-76
2022/06/24 02:53:37;;;;;;;3.60;1.42;;;17.20;99.90;;;;;;5036269;28;20094;-76
2022/06/24 02:56:07;;;;;;;5.72;1.70;;;17.10;99.90;;;;;;5054739;28;20055;-76
2022/06/24 02:58:33;;;;;;;6.07;1.73;;;17.10;99.90;;;;;;5036830;28;20048;-76
2022/06/24 03:01:00;;;;;;;4.55;1.58;;;17.10;99.90;;;;;;5047017;28;20021;-76
2022/06/24 03:03:26;;;;;;;6.35;1.45;;;17.10;99.90;;;;;;5033740;28;20416;-76
2022/06/24 03:05:52;;;;;;;3.60;1.55;;;17.10;99.90;;;;;;5048170;28;20033;-76
2022/06/24 03:08:19;;;;;;;6.25;1.48;;;17.10;99.90;;;;;;5050390;28;20031;-76
2022/06/24 03:10:45;;;;;;;4.55;1.45;;;17.10;99.90;;;;;;5054517;28;20068;-76
2022/06/24 03:13:11;;;;;;;4.32;1.55;;;17.00;99.90;;;;;;5054241;28;20056;-76
2022/06/24 03:15:37;;;;;;;2.35;1.30;;;17.00;99.90;;;;;;5050407;28;20057;-76
2022/06/24 03:18:03;;;;;;;4.90;1.90;;;17.00;99.90;;;;;;5050465;28;20033;-76
2022/06/24 03:20:29;;;;;;;5.95;1.50;;;17.00;99.90;;;;;;5052330;28;20385;-76
2022/06/24 03:22:55;;;;;;;6.93;2.00;;;16.90;99.90;;;;;;5054331;28;20025;-76
2022/06/24 03:25:20;;;;;;;4.40;1.48;;;16.90;99.90;;;;;;5035901;28;20021;-76
2022/06/24 03:27:46;;;;;;;7.25;1.92;;;16.90;99.90;;;;;;5054267;28;20033;-76
2022/06/24 03:30:12;;;;;;;4.45;1.60;;;16.90;99.90;;;;;;5055156;28;20060;-77
2022/06/24 03:32:39;;;;;;;6.00;2.42;;;16.90;99.90;;;;;;5076240;28;20035;-77
2022/06/24 03:35:05;;;;;;;8.57;1.80;;;16.90;99.90;;;;;;5060611;28;20354;-76
2022/06/24 03:37:32;;;;;;;7.53;2.15;;;16.90;99.90;;;;;;5051380;28;20030;-75
2022/06/24 03:39:58;;;;;;;5.53;2.63;;;17.00;99.90;;;;;;5046736;28;20025;-75
2022/06/24 03:42:24;;;;;;;5.97;2.05;;;17.00;99.90;;;;;;5056009;28;20033;-75
2022/06/24 03:44:50;;;;;;;5.18;1.40;;;17.00;99.90;;;;;;5040392;28;20036;-76
2022/06/24 03:47:16;;;;;;;3.92;1.75;;;17.00;99.90;;;;;;5047917;28;20025;-76
2022/06/24 03:49:42;;;;;;;7.70;2.00;;;17.00;99.90;;;;;;5055830;28;20366;-75
2022/06/24 03:52:07;;;;;;;4.78;1.60;;;17.00;99.90;;;;;;5063596;28;20553;-75
2022/06/24 03:54:33;;;;;;;7.43;2.35;;;17.10;99.90;;;;;;5060803;28;20056;-75
2022/06/24 03:56:59;;;;;;;9.80;1.75;;;17.10;99.90;;;;;;5055783;28;20036;-76
2022/06/24 03:59:25;;;;;;;3.90;1.73;;;17.10;99.90;;;;;;5055977;28;20029;-75
2022/06/24 04:01:50;;;;;;;4.78;1.52;;;17.10;99.90;;;;;;5050831;28;20037;-76
2022/06/24 04:04:16;;;;;;;4.93;1.83;;;17.10;99.90;;;;;;5057113;28;20419;-75
2022/06/24 04:06:41;;;;;;;4.55;2.22;;;17.10;99.90;;;;;;5058839;28;20032;-75
2022/06/24 04:09:07;;;;;;;5.65;1.60;;;17.10;99.90;;;;;;5055119;28;20029;-69
2022/06/24 04:11:33;;;;;;;5.10;2.10;;;17.10;99.90;;;;;;5053670;28;20053;-69
2022/06/24 04:14:00;;;;;;;4.15;1.75;;;17.20;99.90;;;;;;5048435;28;20036;-69
2022/06/24 04:16:25;;;;;;;3.95;1.70;;;17.20;99.90;;;;;;5053746;28;20048;-69
2022/06/24 04:18:51;;;;;;;5.28;1.65;;;17.20;99.90;;;;;;5062424;28;20021;-69
2022/06/24 04:21:17;;;;;;;5.60;1.70;;;17.20;99.90;;;;;;5066531;28;20083;-69
2022/06/24 04:23:44;;;;;;;7.10;1.70;;;17.30;99.90;;;;;;5063855;28;20033;-69
2022/06/24 04:26:10;;;;;;;6.32;1.48;;;17.30;99.90;;;;;;5046457;28;20490;-69
2022/06/24 04:28:36;;;;;;;5.60;1.70;;;17.30;99.90;;;;;;5063403;28;20024;-70
2022/06/24 04:31:02;;;;;;;6.05;1.80;;;17.40;99.90;;;;;;5064002;28;20036;-70
2022/06/24 04:33:28;;;;;;;7.72;1.83;;;17.50;99.90;;;;;;5067353;28;20025;-69
2022/06/24 04:35:54;;;;;;;5.68;1.50;;;17.50;99.90;;;;;;5067838;28;20412;-69
2022/06/24 04:38:20;;;;;;;4.68;1.60;;;17.60;99.90;;;;;;5065448;28;20021;-72
2022/06/24 04:40:45;;;;;;;6.43;1.90;;;17.60;99.90;;;;;;5063180;28;20024;-72
2022/06/24 04:43:12;;;;;;;6.90;1.63;;;17.60;99.90;;;;;;5068736;28;20035;-72
2022/06/24 04:45:38;;;;;;;8.15;1.50;;;17.70;99.90;;;;;;5064976;28;20051;-72
2022/06/24 04:48:04;;;;;;;6.15;1.73;;;17.80;99.90;;;;;;5059594;28;20052;-72
2022/06/24 04:50:30;;;;;;;4.47;1.50;;;17.80;99.90;;;;;;5063323;28;20031;-72
2022/06/24 04:52:56;;;;;;;5.32;1.75;;;17.80;99.90;;;;;;5048488;28;20016;-69
2022/06/24 04:55:22;;;;;;;9.32;2.00;;;17.90;99.90;;;;;;5061673;28;20434;-69
2022/06/24 04:57:47;;;;;;;6.50;1.80;;;17.90;99.90;;;;;;5061226;28;20650;-70
2022/06/24 05:00:16;;;;;;;9.48;2.13;;;17.80;99.90;;;;;;5060701;28;20461;-69
2022/06/24 05:02:42;;;;;;;6.03;1.83;;;17.90;99.90;;;;;;5060319;28;20032;-69
2022/06/24 05:05:09;;;;;;;6.07;1.90;;;17.90;99.90;;;;;;5049890;28;20674;-68
2022/06/24 05:07:35;;;;;;;5.65;1.65;;;17.90;99.90;;;;;;5057259;28;20052;-68
2022/06/24 05:10:01;;;;;;;6.95;2.58;;;17.90;99.90;;;;;;5056247;28;20524;-69
2022/06/24 05:12:27;;;;;;;5.43;1.88;;;17.90;99.90;;;;;;5057255;28;20029;-70
2022/06/24 05:14:52;;;;;;;5.88;1.90;;;18.00;99.90;;;;;;5055151;28;20104;-69
2022/06/24 05:17:18;;;;;;;5.82;1.70;;;18.00;99.90;;;;;;5059595;28;20049;-68
2022/06/24 05:19:43;;;;;;;4.88;1.65;;;18.00;99.90;;;;;;5044013;28;20067;-69
2022/06/24 05:22:09;;;;;;;7.78;1.90;;;18.00;99.90;;;;;;5046403;28;20037;-69
2022/06/24 05:24:35;;;;;;;5.72;1.85;;;18.00;99.90;;;;;;5059740;28;20044;-69
2022/06/24 05:27:00;;;;;;;5.85;1.60;;;18.00;99.90;;;;;;5057849;28;20440;-69
2022/06/24 05:29:26;;;;;;;7.28;1.70;;;18.10;99.90;;;;;;5058630;28;20512;-69
2022/06/24 05:31:51;;;;;;;6.13;1.60;;;18.10;99.90;;;;;;5039758;28;20112;-69
2022/06/24 05:34:17;;;;;;;8.38;1.80;;;18.20;99.90;;;;;;5051875;28;20028;-69
2022/06/24 05:36:43;;;;;;;8.55;1.80;;;18.30;99.90;;;;;;5049376;28;20037;-68
2022/06/24 05:39:09;;;;;;;8.18;2.35;;;18.30;99.90;;;;;;5044578;28;20033;-69
2022/06/24 05:41:38;;;;;;;7.95;1.55;;;18.40;99.90;;;;;;5059627;28;20501;-69
2022/06/24 05:44:04;;;;;;;5.55;1.75;;;18.50;99.90;;;;;;5058967;28;20078;-70
2022/06/24 05:46:30;;;;;;;8.52;1.70;;;18.60;99.90;;;;;;5053927;28;20021;-69
2022/06/24 05:48:56;;;;;;;8.02;1.83;;;18.70;99.90;;;;;;5059307;28;20390;-69
2022/06/24 05:51:22;;;;;;;7.95;1.92;;;18.70;99.90;;;;;;5054105;28;20036;-70
2022/06/24 05:56:32;;;;;;;8.17;1.80;;;18.90;99.90;;;;;;5054579;28;20067;-69
2022/06/24 05:58:57;;;;;;;8.55;1.80;;;18.90;99.90;;;;;;5068168;28;20032;-69
2022/06/24 06:01:25;;;;;;;5.40;1.70;;;19.00;99.90;;;;;;5066867;28;20021;-70
2022/06/24 06:03:50;;;;;;;6.47;1.52;;;19.00;99.90;;;;;;5064406;28;20028;-70
2022/06/24 06:06:16;;;;;;;7.38;1.63;;;19.00;99.90;;;;;;5050059;28;20021;-70
2022/06/24 06:08:42;;;;;;;8.48;2.00;;;19.00;99.90;;;;;;5052390;28;20017;-69
2022/06/24 06:11:11;;;;;;;8.02;2.05;;;19.00;99.90;;;;;;5052208;28;20036;-69
2022/06/24 06:13:38;;;;;;;5.68;1.50;;;19.10;99.90;;;;;;5060936;28;20014;-70
2022/06/24 06:16:04;;;;;;;3.83;1.50;;;19.10;99.90;;;;;;5049896;28;20013;-70
2022/06/24 06:18:29;;;;;;;6.65;2.38;;;19.10;99.90;;;;;;5049536;28;20051;-70
2022/06/24 06:21:00;;;;;;;9.07;1.92;;;19.10;99.90;;;;;;5037819;28;20436;-69
2022/06/24 06:23:28;;;;;;;7.30;1.90;;;19.10;99.90;;;;;;5049829;28;20021;-70
2022/06/24 06:25:54;;;;;;;6.30;1.92;;;19.10;99.90;;;;;;5053039;28;20017;-71
2022/06/24 06:28:19;;;;;;;5.72;2.00;;;19.10;99.90;;;;;;5048342;28;20389;-72
2022/06/24 06:30:45;;;;;;;7.40;1.63;;;19.20;99.90;;;;;;5043319;28;20119;-72
2022/06/24 06:33:10;;;;;;;8.93;2.00;;;19.20;99.90;;;;;;5040797;28;20120;-72
2022/06/24 06:35:36;;;;;;;6.07;1.98;;;19.40;99.90;;;;;;5046398;28;20036;-71
2022/06/24 06:38:02;;;;;;;8.40;1.80;;;19.60;99.90;;;;;;5052831;28;20022;-71
2022/06/24 06:40:27;;;;;;;8.55;2.10;;;19.90;99.90;;;;;;5059473;28;20722;-71
2022/06/24 06:42:55;;;;;;;8.82;2.05;;;20.20;99.90;;;;;;5036967;28;20139;-71
2022/06/24 06:45:21;;;;;;;6.88;1.70;;;20.30;99.90;;;;;;5052603;28;20526;-71
2022/06/24 06:47:47;;;;;;;5.95;1.83;;;20.30;99.90;;;;;;5052830;28;20036;-71
2022/06/24 06:50:13;;;;;;;5.72;1.52;;;20.40;99.90;;;;;;5058481;28;20068;-71
2022/06/24 06:52:40;;;;;;;5.72;1.60;;;20.60;99.90;;;;;;5073984;28;20024;-71
2022/06/24 06:55:06;;;;;;;8.85;1.80;;;20.80;99.90;;;;;;5054708;28;20021;-71
2022/06/24 06:57:32;;;;;;;4.57;1.70;;;20.80;99.90;;;;;;5043224;28;20032;-71
2022/06/24 06:59:57;;;;;;;12.13;1.55;;;20.90;99.90;;;;;;5036786;28;20029;-71
2022/06/24 07:02:23;;;;;;;6.00;1.77;;;21.00;99.90;;;;;;5053543;28;20108;-71
2022/06/24 07:04:49;;;;;;;6.63;1.67;;;21.10;99.90;;;;;;5068197;28;20473;-71
2022/06/24 07:07:14;;;;;;;6.97;1.95;;;21.10;99.90;;;;;;5055125;28;20207;-71
2022/06/24 07:09:40;;;;;;;5.20;1.50;;;21.00;99.90;;;;;;5052529;28;20029;-71
2022/06/24 07:12:06;;;;;;;6.35;2.13;;;21.00;99.90;;;;;;5052384;28;20032;-71
2022/06/24 07:14:32;;;;;;;6.53;1.60;;;21.00;99.90;;;;;;5041117;28;20377;-71
2022/06/24 07:16:57;;;;;;;5.28;1.58;;;21.00;99.90;;;;;;5046038;28;20021;-71
2022/06/24 07:19:23;;;;;;;5.15;1.75;;;21.00;99.90;;;;;;5063874;28;20033;-71
2022/06/24 07:21:49;;;;;;;5.07;1.70;;;21.00;99.90;;;;;;5069891;28;20108;-71
2022/06/24 07:24:15;;;;;;;4.53;1.80;;;21.00;99.90;;;;;;5056011;28;20025;-71
2022/06/24 07:26:40;;;;;;;7.88;2.15;;;21.00;99.90;;;;;;5055571;28;20492;-71
2022/06/24 07:29:06;;;;;;;6.97;1.67;;;21.00;99.90;;;;;;5055403;28;20035;-70
2022/06/24 07:31:31;;;;;;;5.65;1.77;;;21.10;99.90;;;;;;5057819;28;20032;-71
2022/06/24 07:33:57;;;;;;;4.40;1.88;;;21.10;99.90;;;;;;5066194;28;20029;-71
2022/06/24 07:36:23;;;;;;;5.28;2.10;;;21.10;99.90;;;;;;5063050;28;20382;-71
2022/06/24 07:38:48;;;;;;;9.40;2.42;;;21.10;99.90;;;;;;5063238;28;20438;-71
2022/06/24 07:41:14;;;;;;;5.25;1.83;;;21.10;99.90;;;;;;5055010;28;20017;-71
2022/06/24 07:43:39;;;;;;;9.35;2.38;;;21.10;99.90;;;;;;5054772;28;20017;-71
2022/06/24 07:46:08;;;;;;;9.57;2.33;;;21.00;99.90;;;;;;5049414;28;20041;-71
2022/06/24 07:48:34;;;;;;;7.22;2.42;;;21.00;99.90;;;;;;5038505;28;20021;-71
2022/06/24 07:51:11;;;;;;;7.05;2.25;;;21.00;99.90;;;;;;5057612;28;20539;-71
2022/06/24 07:53:37;;;;;;;9.45;2.15;;;20.90;99.90;;;;;;5044672;28;20033;-71
2022/06/24 07:58:47;;;;;;;5.00;1.92;;;20.90;99.90;;;;;;5064877;28;20028;-71
2022/06/24 08:01:12;;;;;;;11.90;2.40;;;20.90;99.90;;;;;;5065428;28;20025;-71
2022/06/24 08:03:38;;;;;;;8.77;2.75;;;21.00;99.90;;;;;;5074808;28;20025;-72
2022/06/24 08:06:04;;;;;;;13.30;2.45;;;21.00;99.90;;;;;;5079099;28;20027;-71
2022/06/24 08:08:29;;;;;;;7.45;2.17;;;21.10;99.90;;;;;;5046368;28;20100;-71
2022/06/24 08:10:55;;;;;;;6.55;1.83;;;21.20;99.90;;;;;;5054514;28;20060;-71
2022/06/24 08:13:20;;;;;;;7.93;2.35;;;21.30;99.90;;;;;;5055456;28;20040;-71
2022/06/24 08:15:46;;;;;;;6.97;2.30;;;21.40;99.90;;;;;;5053554;28;20026;-71
2022/06/24 08:18:12;;;;;;;8.40;2.70;;;21.40;99.90;;;;;;5056826;28;20402;-71
2022/06/24 08:20:38;;;;;;;13.13;2.53;;;21.50;99.90;;;;;;5055171;28;20120;-72
2022/06/24 08:23:03;;;;;;;10.18;2.30;;;21.60;99.90;;;;;;5054958;28;20057;-71
2022/06/24 08:25:29;;;;;;;6.95;2.47;;;21.70;99.90;;;;;;5056633;28;20031;-71
2022/06/24 08:27:54;;;;;;;8.90;2.30;;;21.80;99.90;;;;;;5057504;28;20036;-72
2022/06/24 08:30:20;;;;;;;7.25;2.60;;;21.80;99.90;;;;;;5062595;28;20029;-71
2022/06/24 08:32:46;;;;;;;6.60;2.20;;;21.90;99.90;;;;;;5064141;28;20361;-71
2022/06/24 08:35:11;;;;;;;9.25;2.20;;;22.00;99.90;;;;;;5062650;28;20017;-72
2022/06/24 08:37:37;;;;;;;8.63;2.90;;;22.10;99.90;;;;;;5068299;28;20400;-72
2022/06/24 08:40:03;;;;;;;8.60;2.53;;;22.20;99.90;;;;;;5055757;28;20021;-71
2022/06/24 08:42:29;;;;;;;8.57;2.20;;;22.30;99.90;;;;;;5053543;28;20151;-71
2022/06/24 08:44:58;;;;;;;7.22;2.20;;;22.40;99.90;;;;;;5044312;28;20021;-71
2022/06/24 08:47:28;;;;;;;8.38;2.35;;;22.50;99.90;;;;;;5056567;28;20040;-72
2022/06/24 08:49:56;;;;;;;9.88;2.30;;;22.50;99.90;;;;;;5067242;28;20104;-72
2022/06/24 08:52:21;;;;;;;10.80;2.75;;;22.40;99.90;;;;;;5055476;28;20082;-71
2022/06/24 08:54:49;;;;;;;9.38;2.45;;;22.30;99.90;;;;;;5051743;28;20021;-71
2022/06/24 08:57:15;;;;;;;8.25;2.70;;;22.30;99.90;;;;;;5054610;28;20029;-71
2022/06/24 08:59:42;;;;;;;8.18;2.58;;;22.20;99.90;;;;;;5068507;28;20105;-71
2022/06/24 09:02:12;;;;;;;8.20;2.50;;;22.20;99.90;;;;;;5054301;28;20020;-71
2022/06/24 09:04:43;;;;;;;7.70;2.30;;;22.10;99.90;;;;;;5054582;28;20462;-71
2022/06/24 09:07:16;;;;;;;8.88;2.53;;;21.90;99.90;;;;;;5040503;28;20433;-71
2022/06/24 09:09:42;;;;;;;10.32;2.92;;;21.80;99.90;;;;;;5060696;28;20033;-71
2022/06/24 09:12:08;;;;;;;7.45;2.72;;;21.80;99.90;;;;;;5055546;28;20033;-71
2022/06/24 09:14:45;;;;;;;11.25;2.88;;;21.80;99.90;;;;;;5053859;28;20021;-71
2022/06/24 09:17:11;;;;;;;7.18;2.45;;;21.80;99.90;;;;;;5058868;28;20073;-71
2022/06/24 09:19:37;;;;;;;13.45;2.70;;;21.80;99.90;;;;;;5059762;28;20021;-71
2022/06/24 09:22:03;;;;;;;7.20;2.20;;;21.90;99.90;;;;;;5067906;28;20017;-71
2022/06/24 09:24:45;;;;;;;7.20;2.20;;;22.00;99.90;;;;;;5053974;28;20021;-72
2022/06/24 09:27:11;;;;;;;8.05;2.53;;;22.20;99.90;;;;;;5057713;28;20020;-72
2022/06/24 09:29:36;;;;;;;8.38;2.40;;;22.30;99.90;;;;;;5038366;28;20037;-71
2022/06/24 09:32:05;;;;;;;8.32;2.15;;;22.60;99.90;;;;;;5049226;28;20033;-71
2022/06/24 09:34:31;;;;;;;9.88;2.47;;;22.90;99.90;;;;;;5061673;28;20017;-71
2022/06/24 09:36:57;;;;;;;11.98;2.72;;;23.10;99.90;;;;;;5054451;28;20024;-71
2022/06/24 09:39:22;;;;;;;7.15;2.58;;;23.20;99.90;;;;;;5049340;28;20092;-71
2022/06/24 09:41:50;;;;;;;7.40;2.40;;;23.30;99.90;;;;;;5045515;28;20159;-71
2022/06/24 09:44:17;;;;;;;10.43;2.65;;;23.30;99.90;;;;;;5039376;28;20024;-71
2022/06/24 09:46:43;;;;;;;7.68;2.65;;;23.20;99.90;;;;;;5046060;28;20025;-71
2022/06/24 09:49:13;;;;;;;9.02;2.95;;;23.10;99.90;;;;;;5055268;28;20028;-72
2022/06/24 09:51:40;;;;;;;8.75;3.08;;;23.10;99.90;;;;;;5057216;28;20036;-71
2022/06/24 09:54:07;;;;;;;9.82;2.70;;;23.40;99.90;;;;;;5058456;28;20040;-71
2022/06/24 09:56:33;;;;;;;9.18;2.95;;;23.70;99.90;;;;;;5052536;28;20021;-71
2022/06/24 10:01:45;;;;;;;9.50;2.35;;;24.00;99.90;;;;;;5053468;28;20090;-70
2022/06/24 10:04:15;;;;;;;10.77;2.55;;;24.10;99.90;;;;;;5062803;28;20016;-70
2022/06/24 10:06:49;;;;;;;6.10;2.22;;;24.20;99.90;;;;;;5073125;28;20051;-70
2022/06/24 10:09:22;;;;;;;6.57;2.17;;;24.50;99.90;;;;;;5072353;28;20020;-70
2022/06/24 10:11:50;;;;;;;7.05;1.88;;;24.70;99.90;;;;;;5053159;28;20378;-70
2022/06/24 10:14:16;;;;;;;7.57;2.38;;;24.70;99.90;;;;;;5053508;28;20115;-70
2022/06/24 10:16:43;;;;;;;8.48;2.15;;;24.70;99.90;;;;;;5053038;28;20540;-71
2022/06/24 10:19:11;;;;;;;4.03;1.73;;;24.90;99.90;;;;;;5045864;28;20032;-70
2022/06/24 10:21:37;;;;;;;7.63;1.88;;;25.00;99.90;;;;;;5033528;28;20036;-71
2022/06/24 10:24:15;;;;;;;6.65;2.05;;;25.10;99.90;;;;;;5052733;28;20462;-70
2022/06/24 10:26:44;;;;;;;6.38;1.80;;;25.20;99.90;;;;;;5052783;28;20074;-70
2022/06/24 10:29:26;;;;;;;12.05;2.90;;;25.30;99.90;;;;;;5053021;28;20852;-70
2022/06/24 10:31:56;;;;;;;5.22;2.10;;;25.40;99.90;;;;;;5035164;28;20033;-71
2022/06/24 10:34:33;;;;;;;7.35;1.95;;;25.60;99.90;;;;;;5055958;28;20021;-70
2022/06/24 10:37:12;;;;;;;5.82;1.80;;;25.70;99.90;;;;;;5061666;28;20029;-70
2022/06/24 10:39:52;;;;;;;6.40;1.80;;;25.70;99.90;;;;;;5058743;28;20021;-70
2022/06/24 10:42:21;;;;;;;7.93;2.15;;;25.80;99.90;;;;;;5037173;28;20083;-70
2022/06/24 10:45:05;;;;;;;7.20;1.90;;;25.70;99.90;;;;;;5033229;28;20024;-71
2022/06/24 10:47:34;;;;;;;6.07;1.70;;;25.90;99.90;;;;;;5041348;28;20075;-70
2022/06/24 10:50:03;;;;;;;6.32;2.28;;;26.10;99.90;;;;;;5047298;28;20021;-70
2022/06/24 10:52:31;;;;;;;7.90;1.60;;;26.30;99.90;;;;;;5066161;28;20017;-70
2022/06/24 10:55:15;;;;;;;8.02;1.70;;;26.20;99.90;;;;;;5059678;28;20052;-70
2022/06/24 10:57:41;;;;;;;5.50;1.50;;;26.10;99.90;;;;;;5057211;28;20029;-70
2022/06/24 11:00:17;;;;;;;4.07;1.70;;;26.10;99.90;;;;;;5056639;28;20130;-70
2022/06/24 11:02:49;;;;;;;4.95;1.58;;;26.30;99.90;;;;;;5057202;28;20037;-71
2022/06/24 11:05:22;;;;;;;5.30;1.63;;;26.70;99.90;;;;;;5042209;28;20029;-70
2022/06/24 11:07:51;;;;;;;6.38;1.90;;;26.70;99.90;;;;;;5059087;28;20032;-77
2022/06/24 11:10:22;;;;;;;7.68;1.60;;;26.80;99.90;;;;;;5037966;28;20041;-77
2022/06/24 11:12:50;;;;;;;5.25;1.73;;;26.90;99.90;;;;;;5056279;28;20025;-78
2022/06/24 11:15:15;;;;;;;4.63;1.50;;;26.70;99.90;;;;;;5065955;28;20501;-77
2022/06/24 11:17:42;;;;;;;7.03;2.00;;;26.40;99.90;;;;;;5057337;28;20033;-77
2022/06/24 11:20:09;;;;;;;7.05;1.88;;;26.30;99.90;;;;;;5059340;28;20024;-77
2022/06/24 11:23:05;;;;;;;5.70;1.50;;;26.30;99.90;;;;;;5053643;28;20035;-78
2022/06/24 11:25:30;;;;;;;5.35;1.48;;;26.20;99.90;;;;;;5059918;28;20028;-77
2022/06/24 11:27:56;;;;;;;6.50;2.20;;;26.20;99.90;;;;;;5058718;28;20036;-78
2022/06/24 11:30:21;;;;;;;5.35;2.08;;;26.40;99.90;;;;;;5057051;28;20048;-78
2022/06/24 11:32:58;;;;;;;2.92;1.40;;;26.40;99.90;;;;;;5053309;28;20107;-78
2022/06/24 11:35:25;;;;;;;4.57;1.90;;;26.40;99.90;;;;;;5059757;28;21139;-78
2022/06/24 11:37:51;;;;;;;7.60;2.13;;;26.30;99.90;;;;;;5064496;28;20074;-78
2022/06/24 11:40:28;;;;;;;4.45;1.95;;;26.10;99.90;;;;;;5053454;28;20033;-77
2022/06/24 11:42:55;;;;;;;6.97;1.95;;;26.00;99.90;;;;;;5048625;28;20762;-77
2022/06/24 11:45:36;;;;;;;4.80;1.50;;;25.90;99.90;;;;;;5051049;28;20060;-78
2022/06/24 11:48:06;;;;;;;4.10;1.80;;;25.80;99.90;;;;;;5046535;28;20032;-78
2022/06/24 11:50:33;;;;;;;5.30;1.65;;;25.70;99.90;;;;;;5042274;28;20057;-78
2022/06/24 11:53:00;;;;;;;6.40;1.65;;;25.70;99.90;;;;;;5052711;28;20079;-75
2022/06/24 11:55:27;;;;;;;7.35;2.00;;;26.10;99.90;;;;;;5075293;28;20108;-75
2022/06/24 11:57:54;;;;;;;6.68;1.90;;;26.50;99.90;;;;;;5061111;28;20024;-75
2022/06/24 12:00:21;;;;;;;7.68;1.90;;;26.80;99.90;;;;;;5061272;28;20016;-75
2022/06/24 12:02:47;;;;;;;5.40;1.67;;;27.30;99.90;;;;;;5062441;28;20028;-75
2022/06/24 12:05:14;;;;;;;7.78;1.60;;;27.20;99.90;;;;;;5058897;28;20039;-76
2022/06/24 12:07:39;;;;;;;6.47;1.75;;;26.90;99.90;;;;;;5043557;28;20036;-76
2022/06/24 12:10:06;;;;;;;5.90;1.95;;;26.70;99.90;;;;;;5041119;28;20057;-76
2022/06/24 12:12:32;;;;;;;7.60;2.00;;;26.60;99.90;;;;;;5065030;28;20533;-76
2022/06/24 12:14:58;;;;;;;7.60;1.80;;;26.60;99.90;;;;;;5054147;28;20040;-76
2022/06/24 12:17:24;;;;;;;6.70;1.50;;;26.40;99.90;;;;;;5052242;28;20478;-76
2022/06/24 12:19:58;;;;;;;7.20;1.70;;;26.10;99.90;;;;;;5051137;28;20030;-75
2022/06/24 12:22:24;;;;;;;;;;;26.10;99.90;;;;;;5051200;28;20028;-75
2022/06/24 12:25:00;;;;;;;4.78;1.73;;;26.00;99.90;;;;;;5054432;28;19904;-75
2022/06/24 12:27:35;;;;;;;5.88;1.50;;;25.80;99.90;;;;;;5058127;28;20373;-76
2022/06/24 12:30:00;;;;;;;6.13;1.77;;;25.70;99.90;;;;;;5054729;28;20033;-75
2022/06/24 12:32:26;;;;;;;5.43;2.15;;;25.40;99.90;;;;;;5036297;28;20029;-77
2022/06/24 12:34:55;;;;;;;7.15;1.50;;;25.20;99.90;;;;;;5056750;28;20021;-77
2022/06/24 12:37:21;;;;;;;6.25;2.08;;;25.10;99.90;;;;;;5052424;28;20031;-76
2022/06/24 12:39:47;;;;;;;6.45;2.20;;;25.00;99.90;;;;;;5026534;28;20458;-77
2022/06/24 12:42:18;;;;;;;9.15;2.45;;;24.80;99.90;;;;;;5064320;28;20118;-77
2022/06/24 12:44:52;;;;;;;9.77;2.25;;;24.60;99.90;;;;;;5051607;28;20017;-77
2022/06/24 12:53:05;;;;;;;9.75;2.20;;;24.10;99.90;;;;;;5054320;28;20032;-77
2022/06/24 12:55:32;;;;;;;6.70;2.30;;;24.10;99.90;;;;;;5054855;28;20053;-76
2022/06/24 12:57:58;;;;;;;10.93;1.98;;;24.00;99.90;;;;;;5032594;28;20025;-77
2022/06/24 13:00:25;;;;;;;4.88;1.90;;;24.00;99.90;;;;;;5060853;28;20024;-77
2022/06/24 13:02:53;;;;;;;5.85;1.90;;;23.90;99.90;;;;;;5049816;28;20055;-77